createdAt,value
2019-05-09T00:00:04.530Z,0.00
2019-05-09T00:01:04.524Z,0.00
2019-05-09T00:02:04.519Z,0.00
2019-05-09T00:03:04.514Z,0.00
2019-05-09T00:04:04.504Z,0.00
2019-05-09T00:05:04.494Z,0.00
2019-05-09T00:06:04.752Z,0.00
2019-05-09T00:07:04.474Z,0.00
2019-05-09T00:08:04.467Z,0.00
2019-05-09T00:09:04.458Z,0.00
2019-05-09T00:10:04.455Z,0.00
2019-05-09T00:11:04.446Z,0.00
2019-05-09T00:12:04.437Z,0.00
2019-05-09T00:13:04.431Z,0.00
2019-05-09T00:14:04.754Z,0.00
2019-05-09T00:15:04.720Z,0.00
2019-05-09T00:16:04.406Z,0.00
2019-05-09T00:17:04.397Z,0.00
2019-05-09T00:18:04.393Z,0.00
2019-05-09T00:19:04.380Z,0.00
2019-05-09T00:20:04.371Z,0.00
2019-05-09T00:21:04.363Z,0.00
2019-05-09T00:22:04.360Z,0.00
2019-05-09T00:23:04.351Z,0.00
2019-05-09T00:24:04.344Z,0.00
2019-05-09T00:25:04.333Z,0.00
2019-05-09T00:26:04.378Z,0.00
2019-05-09T00:27:04.314Z,0.00
2019-05-09T00:28:04.315Z,0.00
2019-05-09T00:29:04.303Z,0.00
2019-05-09T00:30:04.289Z,0.00
2019-05-09T00:31:04.279Z,0.00
2019-05-09T00:32:04.275Z,0.00
2019-05-09T00:33:04.266Z,0.00
2019-05-09T00:34:04.406Z,0.00
2019-05-09T00:35:04.254Z,0.00
2019-05-09T00:36:04.494Z,0.00
2019-05-09T00:37:04.235Z,0.00
2019-05-09T00:38:04.479Z,0.00
2019-05-09T00:39:04.236Z,0.00
2019-05-09T00:40:04.210Z,0.00
2019-05-09T00:41:04.201Z,0.00
2019-05-09T00:42:04.554Z,0.00
2019-05-09T00:43:04.218Z,0.00
2019-05-09T00:44:04.175Z,0.00
2019-05-09T00:45:04.282Z,0.00
2019-05-09T00:46:04.499Z,0.00
2019-05-09T00:47:04.339Z,0.00
2019-05-09T00:48:04.145Z,0.00
2019-05-09T00:49:05.062Z,0.00
2019-05-09T00:50:05.159Z,0.00
2019-05-09T00:51:04.115Z,0.00
2019-05-09T00:52:04.106Z,0.00
2019-05-09T00:53:04.100Z,0.00
2019-05-09T00:54:04.305Z,0.00
2019-05-09T00:55:04.095Z,0.00
2019-05-09T00:56:04.476Z,0.00
2019-05-09T00:57:04.068Z,0.00
2019-05-09T00:58:04.305Z,0.00
2019-05-09T00:59:04.385Z,0.00
2019-05-09T01:00:04.141Z,0.00
2019-05-09T01:01:04.490Z,0.00
2019-05-09T01:02:04.170Z,0.00
2019-05-09T01:03:04.011Z,0.00
2019-05-09T01:04:04.460Z,0.00
2019-05-09T01:05:04.356Z,0.00
2019-05-09T01:06:04.424Z,0.00
2019-05-09T01:07:03.982Z,0.00
2019-05-09T01:08:04.279Z,0.00
2019-05-09T01:09:04.320Z,0.00
2019-05-09T01:10:04.383Z,0.00
2019-05-09T01:11:11.710Z,0.00
2019-05-09T01:12:04.264Z,0.00
2019-05-09T01:13:03.927Z,0.00
2019-05-09T01:14:03.931Z,0.00
2019-05-09T01:15:03.913Z,0.00
2019-05-09T01:16:04.676Z,0.00
2019-05-09T01:17:04.354Z,0.00
2019-05-09T01:18:04.585Z,0.00
2019-05-09T01:19:03.906Z,0.00
2019-05-09T01:20:03.881Z,0.00
2019-05-09T01:21:04.158Z,0.00
2019-05-09T01:22:03.987Z,0.00
2019-05-09T01:23:03.839Z,0.00
2019-05-09T01:24:03.835Z,0.00
2019-05-09T01:25:04.274Z,0.00
2019-05-09T01:26:04.126Z,0.00
2019-05-09T01:27:03.920Z,0.00
2019-05-09T01:28:03.804Z,0.00
2019-05-09T01:29:04.504Z,0.00
2019-05-09T01:30:04.567Z,0.00
2019-05-09T01:31:04.306Z,0.00
2019-05-09T01:32:03.765Z,0.00
2019-05-09T01:33:03.862Z,0.00
2019-05-09T01:34:04.194Z,0.00
2019-05-09T01:35:03.949Z,0.00
2019-05-09T01:36:03.950Z,0.00
2019-05-09T01:37:03.718Z,0.00
2019-05-09T01:38:03.804Z,0.00
2019-05-09T01:39:03.714Z,0.00
2019-05-09T01:40:04.277Z,0.00
2019-05-09T01:41:04.169Z,0.00
2019-05-09T01:42:03.675Z,0.00
2019-05-09T01:43:04.504Z,0.00
2019-05-09T01:44:04.158Z,0.00
2019-05-09T01:45:03.823Z,0.00
2019-05-09T01:46:03.962Z,0.00
2019-05-09T01:47:03.987Z,0.00
2019-05-09T01:48:03.628Z,0.00
2019-05-09T01:49:03.619Z,0.00
2019-05-09T01:50:03.986Z,0.00
2019-05-09T01:51:03.608Z,0.00
2019-05-09T01:52:03.749Z,0.00
2019-05-09T01:53:04.103Z,0.00
2019-05-09T01:54:03.837Z,0.00
2019-05-09T01:55:03.791Z,0.00
2019-05-09T01:56:03.888Z,0.00
2019-05-09T01:57:03.658Z,0.00
2019-05-09T01:58:03.538Z,0.00
2019-05-09T01:59:03.528Z,0.00
2019-05-09T02:00:04.190Z,0.00
2019-05-09T02:01:03.746Z,0.00
2019-05-09T02:02:08.102Z,0.00
2019-05-09T02:03:03.489Z,0.00
2019-05-09T02:04:04.064Z,0.00
2019-05-09T02:05:04.167Z,0.00
2019-05-09T02:06:03.775Z,0.00
2019-05-09T02:07:04.303Z,0.00
2019-05-09T02:08:03.462Z,0.00
2019-05-09T02:09:03.596Z,0.00
2019-05-09T02:10:03.570Z,0.00
2019-05-09T02:11:03.932Z,0.00
2019-05-09T02:12:04.004Z,0.00
2019-05-09T02:13:03.407Z,0.00
2019-05-09T02:14:04.133Z,0.00
2019-05-09T02:15:04.026Z,0.00
2019-05-09T02:16:03.487Z,0.00
2019-05-09T02:17:03.396Z,0.00
2019-05-09T02:18:05.250Z,0.00
2019-05-09T02:19:04.069Z,0.00
2019-05-09T02:20:03.976Z,0.00
2019-05-09T02:21:04.040Z,0.00
2019-05-09T02:22:03.712Z,0.00
2019-05-09T02:23:03.762Z,0.00
2019-05-09T02:24:03.421Z,0.00
2019-05-09T02:25:04.277Z,0.00
2019-05-09T02:26:03.954Z,0.00
2019-05-09T02:27:03.930Z,0.00
2019-05-09T02:28:03.540Z,0.00
2019-05-09T02:29:03.424Z,0.00
2019-05-09T02:30:05.882Z,0.00
2019-05-09T02:31:05.272Z,0.00
2019-05-09T02:32:04.636Z,0.00
2019-05-09T02:33:05.147Z,0.00
2019-05-09T02:34:04.894Z,0.00
2019-05-09T02:35:04.964Z,0.00
2019-05-09T02:36:03.247Z,0.00
2019-05-09T02:37:03.201Z,0.00
2019-05-09T02:38:03.190Z,0.00
2019-05-09T02:39:03.185Z,0.00
2019-05-09T02:40:03.189Z,0.00
2019-05-09T02:41:03.163Z,0.00
2019-05-09T02:42:09.533Z,0.00
2019-05-09T02:43:03.145Z,0.00
2019-05-09T02:44:03.143Z,0.00
2019-05-09T02:45:03.132Z,0.00
2019-05-09T02:46:03.119Z,0.00
2019-05-09T02:47:03.109Z,0.00
2019-05-09T02:48:03.109Z,0.00
2019-05-09T02:49:03.091Z,0.00
2019-05-09T02:50:03.088Z,0.00
2019-05-09T02:51:03.081Z,0.00
2019-05-09T02:52:03.068Z,0.00
2019-05-09T02:53:03.058Z,0.00
2019-05-09T02:54:03.052Z,0.00
2019-05-09T02:55:03.046Z,0.00
2019-05-09T02:56:03.043Z,0.00
2019-05-09T02:57:03.033Z,0.00
2019-05-09T02:58:03.015Z,0.00
2019-05-09T02:59:03.006Z,0.00
2019-05-09T03:00:02.999Z,0.00
2019-05-09T03:01:02.989Z,0.00
2019-05-09T03:02:02.997Z,0.00
2019-05-09T03:03:02.977Z,0.00
2019-05-09T03:04:02.971Z,0.00
2019-05-09T03:05:02.978Z,0.00
2019-05-09T03:06:02.946Z,0.00
2019-05-09T03:07:02.937Z,0.00
2019-05-09T03:08:02.937Z,0.00
2019-05-09T03:09:02.931Z,0.00
2019-05-09T03:10:02.915Z,0.00
2019-05-09T03:11:02.905Z,0.00
2019-05-09T03:12:21.110Z,0.00
2019-05-09T03:13:02.886Z,0.00
2019-05-09T03:14:02.886Z,0.00
2019-05-09T03:15:02.876Z,0.00
2019-05-09T03:16:02.867Z,0.00
2019-05-09T03:17:02.863Z,0.00
2019-05-09T03:18:02.851Z,0.00
2019-05-09T03:19:02.844Z,0.00
2019-05-09T03:20:02.829Z,0.00
2019-05-09T03:21:02.835Z,0.00
2019-05-09T03:22:02.821Z,0.00
2019-05-09T03:23:02.827Z,0.00
2019-05-09T03:24:02.798Z,0.00
2019-05-09T03:25:02.787Z,0.00
2019-05-09T03:26:02.784Z,0.00
2019-05-09T03:27:02.774Z,4.00
2019-05-09T03:28:02.765Z,4.00
2019-05-09T03:29:02.756Z,0.00
2019-05-09T03:30:02.758Z,4.00
2019-05-09T03:31:02.737Z,4.00
2019-05-09T03:32:02.729Z,4.00
2019-05-09T03:33:02.721Z,8.00
2019-05-09T03:34:02.718Z,4.00
2019-05-09T03:35:02.706Z,8.00
2019-05-09T03:36:02.701Z,12.00
2019-05-09T03:37:02.690Z,12.00
2019-05-09T03:38:02.680Z,12.00
2019-05-09T03:39:02.670Z,16.00
2019-05-09T03:40:02.665Z,16.00
2019-05-09T03:41:02.656Z,20.00
2019-05-09T03:42:02.649Z,24.00
2019-05-09T03:43:02.634Z,24.00
2019-05-09T03:44:02.632Z,32.00
2019-05-09T03:45:02.623Z,36.00
2019-05-09T03:46:02.615Z,40.00
2019-05-09T03:47:02.606Z,44.00
2019-05-09T03:48:02.596Z,48.00
2019-05-09T03:49:02.592Z,52.00
2019-05-09T03:50:02.578Z,56.00
2019-05-09T03:51:02.586Z,64.00
2019-05-09T03:52:02.559Z,72.00
2019-05-09T03:53:02.551Z,80.00
2019-05-09T03:54:02.544Z,84.00
2019-05-09T03:55:02.535Z,92.00
2019-05-09T03:56:02.526Z,100.00
2019-05-09T03:57:02.514Z,108.00
2019-05-09T03:58:02.510Z,116.00
2019-05-09T03:59:02.501Z,120.00
2019-05-09T04:00:02.492Z,132.00
2019-05-09T04:01:02.489Z,144.00
2019-05-09T04:02:02.471Z,156.00
2019-05-09T04:03:02.462Z,168.00
2019-05-09T04:04:02.459Z,172.00
2019-05-09T04:05:02.448Z,188.00
2019-05-09T04:06:03.135Z,220.00
2019-05-09T04:07:02.429Z,248.00
2019-05-09T04:08:02.420Z,256.00
2019-05-09T04:09:02.427Z,264.00
2019-05-09T04:10:02.405Z,288.00
2019-05-09T04:11:02.396Z,312.00
2019-05-09T04:12:02.384Z,332.00
2019-05-09T04:13:02.375Z,332.00
2019-05-09T04:14:02.369Z,320.00
2019-05-09T04:15:02.359Z,320.00
2019-05-09T04:16:02.354Z,324.00
2019-05-09T04:17:02.342Z,340.00
2019-05-09T04:18:02.331Z,356.00
2019-05-09T04:19:02.349Z,376.00
2019-05-09T04:20:02.309Z,396.00
2019-05-09T04:21:02.303Z,412.00
2019-05-09T04:22:02.553Z,432.00
2019-05-09T04:23:02.302Z,448.00
2019-05-09T04:24:02.283Z,456.00
2019-05-09T04:25:04.837Z,460.00
2019-05-09T04:26:08.521Z,472.00
2019-05-09T04:27:02.251Z,484.00
2019-05-09T04:28:02.247Z,500.00
2019-05-09T04:29:02.235Z,508.00
2019-05-09T04:30:02.226Z,520.00
2019-05-09T04:31:02.217Z,540.00
2019-05-09T04:32:02.208Z,560.00
2019-05-09T04:33:02.202Z,576.00
2019-05-09T04:34:02.201Z,596.00
2019-05-09T04:35:02.186Z,616.00
2019-05-09T04:36:02.178Z,628.00
2019-05-09T04:37:02.169Z,640.00
2019-05-09T04:38:02.157Z,656.00
2019-05-09T04:39:02.147Z,664.00
2019-05-09T04:40:03.512Z,684.00
2019-05-09T04:41:02.132Z,704.00
2019-05-09T04:42:05.336Z,720.00
2019-05-09T04:43:13.378Z,736.00
2019-05-09T04:44:05.148Z,760.00
2019-05-09T04:45:03.506Z,784.00
2019-05-09T04:46:02.093Z,788.00
2019-05-09T04:47:03.637Z,812.00
2019-05-09T04:48:02.074Z,908.00
2019-05-09T04:49:02.709Z,912.00
2019-05-09T04:50:02.062Z,1356.00
2019-05-09T04:51:02.045Z,1572.00
2019-05-09T04:52:02.043Z,1132.00
2019-05-09T04:53:02.029Z,884.00
2019-05-09T04:54:02.027Z,912.00
2019-05-09T04:55:02.014Z,1092.00
2019-05-09T04:56:02.002Z,1480.00
2019-05-09T04:57:02.001Z,1700.00
2019-05-09T04:58:01.986Z,1544.00
2019-05-09T04:59:01.976Z,1340.00
2019-05-09T05:00:01.982Z,1208.00
2019-05-09T05:01:01.963Z,1132.00
2019-05-09T05:02:01.955Z,1044.00
2019-05-09T05:03:01.944Z,968.00
2019-05-09T05:04:01.939Z,924.00
2019-05-09T05:05:01.928Z,912.00
2019-05-09T05:06:01.924Z,920.00
2019-05-09T05:07:01.926Z,908.00
2019-05-09T05:08:01.908Z,944.00
2019-05-09T05:09:01.902Z,968.00
2019-05-09T05:10:01.891Z,988.00
2019-05-09T05:11:01.880Z,1008.00
2019-05-09T05:12:01.878Z,1000.00
2019-05-09T05:13:01.863Z,1012.00
2019-05-09T05:14:01.867Z,1060.00
2019-05-09T05:15:01.852Z,1096.00
2019-05-09T05:16:01.846Z,1120.00
2019-05-09T05:17:07.521Z,1244.00
2019-05-09T05:18:01.829Z,1604.00
2019-05-09T05:19:01.820Z,2848.00
2019-05-09T05:20:01.813Z,2720.00
2019-05-09T05:21:01.806Z,4004.00
2019-05-09T05:22:01.795Z,3644.00
2019-05-09T05:23:01.785Z,3448.00
2019-05-09T05:24:01.778Z,3280.00
2019-05-09T05:25:01.804Z,3664.00
2019-05-09T05:26:01.769Z,2532.00
2019-05-09T05:27:01.761Z,2416.00
2019-05-09T05:28:01.760Z,1984.00
2019-05-09T05:29:01.748Z,1584.00
2019-05-09T05:30:01.738Z,1572.00
2019-05-09T05:31:01.730Z,1584.00
2019-05-09T05:32:01.733Z,1552.00
2019-05-09T05:33:01.725Z,1508.00
2019-05-09T05:34:01.716Z,4172.00
2019-05-09T05:35:01.708Z,2940.00
2019-05-09T05:36:01.701Z,1540.00
2019-05-09T05:37:01.696Z,2100.00
2019-05-09T05:38:01.698Z,4504.00
2019-05-09T05:39:01.687Z,3072.00
2019-05-09T05:40:01.682Z,5144.00
2019-05-09T05:41:01.678Z,5360.00
2019-05-09T05:42:01.673Z,5292.00
2019-05-09T05:43:01.667Z,5228.00
2019-05-09T05:44:01.660Z,5212.00
2019-05-09T05:45:01.651Z,5248.00
2019-05-09T05:46:01.651Z,5268.00
2019-05-09T05:47:01.648Z,5320.00
2019-05-09T05:48:01.639Z,5412.00
2019-05-09T05:49:01.648Z,5556.00
2019-05-09T05:50:01.639Z,5676.00
2019-05-09T05:51:01.634Z,5456.00
2019-05-09T05:52:01.632Z,5276.00
2019-05-09T05:53:01.625Z,5896.00
2019-05-09T05:54:01.669Z,3420.00
2019-05-09T05:55:01.618Z,6344.00
2019-05-09T05:56:01.614Z,5740.00
2019-05-09T05:57:01.617Z,6080.00
2019-05-09T05:58:01.630Z,6024.00
2019-05-09T05:59:01.611Z,6032.00
2019-05-09T06:00:01.615Z,6096.00
2019-05-09T06:01:04.285Z,6188.00
2019-05-09T06:02:01.613Z,6212.00
2019-05-09T06:03:01.599Z,6156.00
2019-05-09T06:04:01.606Z,6144.00
2019-05-09T06:05:01.610Z,6136.00
2019-05-09T06:06:01.602Z,2528.00
2019-05-09T06:07:01.599Z,4084.00
2019-05-09T06:08:01.600Z,6056.00
2019-05-09T06:09:01.595Z,6180.00
2019-05-09T06:10:01.601Z,6356.00
2019-05-09T06:11:01.599Z,6400.00
2019-05-09T06:12:01.601Z,6500.00
2019-05-09T06:13:01.599Z,5920.00
2019-05-09T06:14:08.801Z,4536.00
2019-05-09T06:15:01.601Z,3608.00
2019-05-09T06:16:01.595Z,2804.00
2019-05-09T06:17:01.600Z,5752.00
2019-05-09T06:18:01.602Z,5208.00
2019-05-09T06:19:01.601Z,5260.00
2019-05-09T06:20:01.604Z,5348.00
2019-05-09T06:21:01.603Z,5296.00
2019-05-09T06:22:01.610Z,5180.00
2019-05-09T06:23:01.605Z,4484.00
2019-05-09T06:24:01.606Z,4432.00
2019-05-09T06:25:01.605Z,4904.00
2019-05-09T06:26:01.650Z,4752.00
2019-05-09T06:27:01.601Z,5184.00
2019-05-09T06:28:01.613Z,4500.00
2019-05-09T06:29:01.602Z,5908.00
2019-05-09T06:30:01.607Z,5868.00
2019-05-09T06:31:01.606Z,3360.00
2019-05-09T06:32:01.606Z,2944.00
2019-05-09T06:33:04.825Z,5192.00
2019-05-09T06:34:01.608Z,3920.00
2019-05-09T06:35:01.602Z,2836.00
2019-05-09T06:36:01.613Z,2508.00
2019-05-09T06:37:03.387Z,2328.00
2019-05-09T06:38:01.608Z,3476.00
2019-05-09T06:39:01.604Z,5160.00
2019-05-09T06:40:01.609Z,5992.00
2019-05-09T06:41:01.612Z,4936.00
2019-05-09T06:42:01.606Z,5728.00
2019-05-09T06:43:01.605Z,4848.00
2019-05-09T06:44:13.170Z,5512.00
2019-05-09T06:45:01.608Z,5932.00
2019-05-09T06:46:01.600Z,10148.00
2019-05-09T06:47:01.601Z,10140.00
2019-05-09T06:48:01.596Z,9848.00
2019-05-09T06:49:20.202Z,9644.00
2019-05-09T06:50:01.601Z,9252.00
2019-05-09T06:51:01.597Z,9544.00
2019-05-09T06:52:01.595Z,9792.00
2019-05-09T06:53:01.594Z,9704.00
2019-05-09T06:54:01.615Z,7432.00
2019-05-09T06:55:01.601Z,4868.00
2019-05-09T06:56:01.595Z,3752.00
2019-05-09T06:57:01.596Z,3948.00
2019-05-09T06:58:01.598Z,5928.00
2019-05-09T06:59:01.594Z,11508.00
2019-05-09T07:00:01.596Z,6324.00
2019-05-09T07:01:01.596Z,6588.00
2019-05-09T07:02:01.598Z,6844.00
2019-05-09T07:03:01.879Z,8048.00
2019-05-09T07:04:01.603Z,6944.00
2019-05-09T07:05:01.626Z,5640.00
2019-05-09T07:06:01.601Z,5432.00
2019-05-09T07:07:01.604Z,5428.00
2019-05-09T07:08:01.610Z,5580.00
2019-05-09T07:09:01.607Z,7052.00
2019-05-09T07:10:01.607Z,6256.00
2019-05-09T07:11:01.608Z,7892.00
2019-05-09T07:12:01.612Z,6492.00
2019-05-09T07:13:01.607Z,5256.00
2019-05-09T07:14:01.613Z,8944.00
2019-05-09T07:15:01.620Z,9428.00
2019-05-09T07:16:01.614Z,3964.00
2019-05-09T07:17:01.619Z,4416.00
2019-05-09T07:18:01.619Z,4308.00
2019-05-09T07:19:01.614Z,5312.00
2019-05-09T07:20:01.637Z,5680.00
2019-05-09T07:21:01.616Z,8092.00
2019-05-09T07:22:01.624Z,6644.00
2019-05-09T07:23:01.621Z,6516.00
2019-05-09T07:24:01.620Z,6660.00
2019-05-09T07:25:06.734Z,7424.00
2019-05-09T07:26:01.628Z,7948.00
2019-05-09T07:27:01.621Z,7788.00
2019-05-09T07:28:01.629Z,6408.00
2019-05-09T07:29:01.627Z,6324.00
2019-05-09T07:30:01.622Z,6948.00
2019-05-09T07:31:01.618Z,7484.00
2019-05-09T07:32:01.619Z,9152.00
2019-05-09T07:33:01.620Z,8256.00
2019-05-09T07:34:01.624Z,9512.00
2019-05-09T07:35:01.629Z,8600.00
2019-05-09T07:36:01.625Z,6392.00
2019-05-09T07:37:01.628Z,6204.00
2019-05-09T07:38:01.620Z,6476.00
2019-05-09T07:39:01.650Z,6560.00
2019-05-09T07:40:01.628Z,6604.00
2019-05-09T07:41:01.624Z,6304.00
2019-05-09T07:42:01.617Z,6320.00
2019-05-09T07:43:01.620Z,6440.00
2019-05-09T07:44:01.614Z,6608.00
2019-05-09T07:45:01.669Z,6680.00
2019-05-09T07:46:01.619Z,6404.00
2019-05-09T07:47:01.616Z,6036.00
2019-05-09T07:48:01.617Z,5708.00
2019-05-09T07:49:01.666Z,5652.00
2019-05-09T07:50:01.615Z,5860.00
2019-05-09T07:51:01.609Z,6164.00
2019-05-09T07:52:06.680Z,6492.00
2019-05-09T07:53:01.606Z,6944.00
2019-05-09T07:54:16.334Z,6692.00
2019-05-09T07:55:01.614Z,6476.00
2019-05-09T07:56:01.606Z,6504.00
2019-05-09T07:57:01.602Z,5888.00
2019-05-09T07:58:01.622Z,5416.00
2019-05-09T07:59:01.613Z,6720.00
2019-05-09T08:00:01.606Z,6756.00
2019-05-09T08:01:01.738Z,6208.00
2019-05-09T08:02:01.595Z,5768.00
2019-05-09T08:03:01.597Z,5276.00
2019-05-09T08:04:01.593Z,5496.00
2019-05-09T08:05:01.589Z,5944.00
2019-05-09T08:06:01.591Z,6980.00
2019-05-09T08:07:01.592Z,7064.00
2019-05-09T08:08:01.588Z,6948.00
2019-05-09T08:09:01.591Z,6780.00
2019-05-09T08:10:01.584Z,5876.00
2019-05-09T08:11:01.577Z,6488.00
2019-05-09T08:12:01.579Z,6516.00
2019-05-09T08:13:01.577Z,5688.00
2019-05-09T08:14:01.572Z,5708.00
2019-05-09T08:15:16.444Z,5960.00
2019-05-09T08:16:01.567Z,5452.00
2019-05-09T08:17:01.564Z,4664.00
2019-05-09T08:18:01.587Z,4376.00
2019-05-09T08:19:01.571Z,4020.00
2019-05-09T08:20:01.564Z,3992.00
2019-05-09T08:21:01.559Z,4112.00
2019-05-09T08:22:01.555Z,4016.00
2019-05-09T08:23:02.271Z,3704.00
2019-05-09T08:24:01.547Z,3964.00
2019-05-09T08:25:01.550Z,3892.00
2019-05-09T08:26:04.443Z,3668.00
2019-05-09T08:27:01.546Z,4184.00
2019-05-09T08:28:01.541Z,4716.00
2019-05-09T08:29:01.543Z,5332.00
2019-05-09T08:30:01.540Z,5992.00
2019-05-09T08:31:01.534Z,6340.00
2019-05-09T08:32:01.537Z,6188.00
2019-05-09T08:33:01.560Z,6128.00
2019-05-09T08:34:01.520Z,5956.00
2019-05-09T08:35:01.516Z,5476.00
2019-05-09T08:36:01.518Z,5244.00
2019-05-09T08:37:02.447Z,5364.00
2019-05-09T08:38:01.512Z,5328.00
2019-05-09T08:39:01.514Z,4288.00
2019-05-09T08:40:01.516Z,4084.00
2019-05-09T08:41:01.505Z,4176.00
2019-05-09T08:42:01.516Z,4672.00
2019-05-09T08:43:01.506Z,4240.00
2019-05-09T08:44:01.494Z,4484.00
2019-05-09T08:45:01.493Z,5100.00
2019-05-09T08:46:01.499Z,5180.00
2019-05-09T08:47:01.482Z,5384.00
2019-05-09T08:48:01.479Z,5912.00
2019-05-09T08:49:01.477Z,6008.00
2019-05-09T08:50:01.478Z,5564.00
2019-05-09T08:51:01.480Z,5976.00
2019-05-09T08:52:15.493Z,6444.00
2019-05-09T08:53:01.463Z,6944.00
2019-05-09T08:54:01.459Z,7684.00
2019-05-09T08:55:01.477Z,8080.00
2019-05-09T08:56:01.453Z,9492.00
2019-05-09T08:57:01.449Z,9560.00
2019-05-09T08:58:01.457Z,8452.00
2019-05-09T08:59:02.313Z,7032.00
2019-05-09T09:00:01.440Z,7552.00
2019-05-09T09:01:04.277Z,7624.00
2019-05-09T09:02:14.897Z,7084.00
2019-05-09T09:03:01.441Z,6496.00
2019-05-09T09:04:01.436Z,6200.00
2019-05-09T09:05:01.431Z,6032.00
2019-05-09T09:06:01.422Z,6012.00
2019-05-09T09:07:01.421Z,6248.00
2019-05-09T09:08:01.418Z,6316.00
2019-05-09T09:09:01.421Z,6256.00
2019-05-09T09:10:01.415Z,5804.00
2019-05-09T09:11:01.412Z,5392.00
2019-05-09T09:12:01.410Z,5308.00
2019-05-09T09:13:01.416Z,5280.00
2019-05-09T09:14:01.403Z,5116.00
2019-05-09T09:15:01.433Z,5360.00
2019-05-09T09:16:14.468Z,5696.00
2019-05-09T09:17:01.395Z,6160.00
2019-05-09T09:18:01.389Z,6488.00
2019-05-09T09:19:01.390Z,6700.00
2019-05-09T09:20:01.389Z,6808.00
2019-05-09T09:21:01.386Z,7096.00
2019-05-09T09:22:01.382Z,7504.00
2019-05-09T09:23:01.385Z,7784.00
2019-05-09T09:24:01.377Z,8144.00
2019-05-09T09:25:01.372Z,8308.00
2019-05-09T09:26:01.380Z,8548.00
2019-05-09T09:27:01.382Z,8496.00
2019-05-09T09:28:01.357Z,7964.00
2019-05-09T09:29:01.356Z,7512.00
2019-05-09T09:30:16.492Z,7020.00
2019-05-09T09:31:01.354Z,6268.00
2019-05-09T09:32:01.346Z,5780.00
2019-05-09T09:33:01.351Z,5584.00
2019-05-09T09:34:01.345Z,5412.00
2019-05-09T09:35:01.342Z,4972.00
2019-05-09T09:36:01.338Z,4876.00
2019-05-09T09:37:04.884Z,4820.00
2019-05-09T09:38:01.367Z,4744.00
2019-05-09T09:39:03.130Z,4416.00
2019-05-09T09:40:01.326Z,4604.00
2019-05-09T09:41:01.325Z,5028.00
2019-05-09T09:42:01.323Z,5020.00
2019-05-09T09:43:01.319Z,5452.00
2019-05-09T09:44:01.317Z,5688.00
2019-05-09T09:45:01.322Z,5672.00
2019-05-09T09:46:10.520Z,5836.00
2019-05-09T09:47:01.300Z,6416.00
2019-05-09T09:48:01.374Z,6696.00
2019-05-09T09:49:01.302Z,6336.00
2019-05-09T09:50:01.295Z,6380.00
2019-05-09T09:51:01.288Z,6296.00
2019-05-09T09:52:01.286Z,6632.00
2019-05-09T09:53:01.294Z,6728.00
2019-05-09T09:54:01.285Z,7448.00
2019-05-09T09:55:01.285Z,6804.00
2019-05-09T09:56:01.277Z,6552.00
2019-05-09T09:57:01.274Z,6664.00
2019-05-09T09:58:01.268Z,7516.00
2019-05-09T09:59:01.263Z,8084.00
2019-05-09T10:00:01.267Z,8288.00
2019-05-09T10:01:03.650Z,8376.00
2019-05-09T10:02:01.262Z,8468.00
2019-05-09T10:03:01.255Z,8288.00
2019-05-09T10:04:15.636Z,8796.00
2019-05-09T10:05:01.248Z,9160.00
2019-05-09T10:06:01.246Z,9020.00
2019-05-09T10:07:01.246Z,8820.00
2019-05-09T10:08:01.241Z,8784.00
2019-05-09T10:09:01.234Z,8744.00
2019-05-09T10:10:01.230Z,8748.00
2019-05-09T10:11:01.228Z,8556.00
2019-05-09T10:12:01.227Z,8444.00
2019-05-09T10:13:03.889Z,8540.00
2019-05-09T10:14:01.226Z,8904.00
2019-05-09T10:15:01.226Z,8896.00
2019-05-09T10:16:01.224Z,8624.00
2019-05-09T10:17:01.218Z,8476.00
2019-05-09T10:18:01.212Z,8172.00
2019-05-09T10:19:01.210Z,7984.00
2019-05-09T10:20:01.212Z,8648.00
2019-05-09T10:21:01.209Z,8760.00
2019-05-09T10:22:01.209Z,8652.00
2019-05-09T10:23:10.999Z,8876.00
2019-05-09T10:24:01.207Z,9120.00
2019-05-09T10:25:01.202Z,9320.00
2019-05-09T10:26:01.199Z,9572.00
2019-05-09T10:27:01.202Z,9752.00
2019-05-09T10:28:01.196Z,9940.00
2019-05-09T10:29:01.222Z,9836.00
2019-05-09T10:30:01.188Z,9560.00
2019-05-09T10:31:01.189Z,9624.00
2019-05-09T10:32:01.184Z,10036.00
2019-05-09T10:33:01.198Z,9972.00
2019-05-09T10:34:01.185Z,10660.00
2019-05-09T10:35:01.216Z,10808.00
2019-05-09T10:36:04.528Z,10836.00
2019-05-09T10:37:02.014Z,11024.00
2019-05-09T10:38:01.184Z,11260.00
2019-05-09T10:39:01.181Z,10968.00
2019-05-09T10:40:01.180Z,11028.00
2019-05-09T10:41:02.017Z,10748.00
2019-05-09T10:42:01.177Z,10292.00
2019-05-09T10:43:01.172Z,9280.00
2019-05-09T10:44:02.019Z,9952.00
2019-05-09T10:45:01.192Z,9892.00
2019-05-09T10:46:01.183Z,9940.00
2019-05-09T10:47:02.336Z,9848.00
2019-05-09T10:48:01.178Z,9932.00
2019-05-09T10:49:01.174Z,10432.00
2019-05-09T10:50:01.171Z,10152.00
2019-05-09T10:51:03.925Z,10376.00
2019-05-09T10:52:01.172Z,10928.00
2019-05-09T10:53:01.172Z,10624.00
2019-05-09T10:54:01.174Z,10820.00
2019-05-09T10:55:01.172Z,10396.00
2019-05-09T10:56:01.176Z,9284.00
2019-05-09T10:57:01.175Z,10232.00
2019-05-09T10:58:02.364Z,10872.00
2019-05-09T10:59:01.177Z,10412.00
2019-05-09T11:00:01.171Z,9236.00
2019-05-09T11:01:01.203Z,7228.00
2019-05-09T11:02:01.167Z,8488.00
2019-05-09T11:03:01.166Z,9644.00
2019-05-09T11:04:01.169Z,8804.00
2019-05-09T11:05:01.169Z,7868.00
2019-05-09T11:06:01.175Z,7588.00
2019-05-09T11:07:01.171Z,8852.00
2019-05-09T11:08:01.169Z,9672.00
2019-05-09T11:09:01.171Z,9656.00
2019-05-09T11:10:01.178Z,8376.00
2019-05-09T11:11:01.175Z,7752.00
2019-05-09T11:12:01.450Z,8140.00
2019-05-09T11:13:01.175Z,7320.00
2019-05-09T11:14:01.173Z,7852.00
2019-05-09T11:15:01.169Z,8392.00
2019-05-09T11:16:01.179Z,7332.00
2019-05-09T11:17:10.964Z,6972.00
2019-05-09T11:18:01.174Z,6292.00
2019-05-09T11:19:01.195Z,5756.00
2019-05-09T11:20:01.218Z,5420.00
2019-05-09T11:21:01.172Z,5888.00
2019-05-09T11:22:01.170Z,7004.00
2019-05-09T11:23:01.178Z,9096.00
2019-05-09T11:24:01.173Z,9872.00
2019-05-09T11:25:01.172Z,10180.00
2019-05-09T11:26:01.171Z,10592.00
2019-05-09T11:27:01.168Z,9896.00
2019-05-09T11:28:10.410Z,9216.00
2019-05-09T11:29:01.166Z,9172.00
2019-05-09T11:30:01.183Z,9560.00
2019-05-09T11:31:01.170Z,9596.00
2019-05-09T11:32:01.168Z,9064.00
2019-05-09T11:33:01.173Z,8356.00
2019-05-09T11:34:01.165Z,7448.00
2019-05-09T11:35:01.166Z,6764.00
2019-05-09T11:36:01.174Z,6908.00
2019-05-09T11:37:01.166Z,6984.00
2019-05-09T11:38:01.169Z,7648.00
2019-05-09T11:39:01.167Z,8144.00
2019-05-09T11:40:01.163Z,7316.00
2019-05-09T11:41:01.169Z,7016.00
2019-05-09T11:42:01.166Z,6404.00
2019-05-09T11:43:01.175Z,6412.00
2019-05-09T11:44:01.209Z,7204.00
2019-05-09T11:45:01.168Z,8476.00
2019-05-09T11:46:01.163Z,8952.00
2019-05-09T11:47:01.162Z,8872.00
2019-05-09T11:48:01.163Z,8460.00
2019-05-09T11:49:01.161Z,8400.00
2019-05-09T11:50:01.180Z,8600.00
2019-05-09T11:51:01.164Z,7916.00
2019-05-09T11:52:01.171Z,7116.00
2019-05-09T11:53:01.181Z,7152.00
2019-05-09T11:54:01.163Z,7120.00
2019-05-09T11:55:01.162Z,7128.00
2019-05-09T11:56:01.167Z,7420.00
2019-05-09T11:57:01.167Z,7728.00
2019-05-09T11:58:01.172Z,8428.00
2019-05-09T11:59:01.163Z,8620.00
2019-05-09T12:00:01.173Z,8536.00
2019-05-09T12:01:02.708Z,8668.00
2019-05-09T12:02:01.172Z,8996.00
2019-05-09T12:03:01.170Z,9068.00
2019-05-09T12:04:01.169Z,9036.00
2019-05-09T12:05:01.191Z,8552.00
2019-05-09T12:06:01.166Z,7716.00
2019-05-09T12:07:01.172Z,7340.00
2019-05-09T12:08:01.167Z,7392.00
2019-05-09T12:09:01.176Z,7612.00
2019-05-09T12:10:01.199Z,7564.00
2019-05-09T12:11:01.200Z,7716.00
2019-05-09T12:12:01.172Z,7924.00
2019-05-09T12:13:01.170Z,8076.00
2019-05-09T12:14:01.174Z,7892.00
2019-05-09T12:15:01.177Z,8488.00
2019-05-09T12:16:01.176Z,8504.00
2019-05-09T12:17:01.177Z,8432.00
2019-05-09T12:18:07.547Z,8032.00
2019-05-09T12:19:01.175Z,8104.00
2019-05-09T12:20:09.763Z,8716.00
2019-05-09T12:21:01.175Z,8892.00
2019-05-09T12:22:01.204Z,9444.00
2019-05-09T12:23:01.182Z,9496.00
2019-05-09T12:24:01.183Z,9188.00
2019-05-09T12:25:01.192Z,8436.00
2019-05-09T12:26:01.196Z,8440.00
2019-05-09T12:27:03.012Z,8780.00